غليزان, الجزائر

10:52 PM CET on سبتهبر 30, 2014 (GMT +0100)
Ghriss | Change Station
CLOSE
Current Station
Airport
Location: Ghriss,
Elevation: 1686 ft
Nearby Weather Stations

Elev 1686 ft 35.21 °N, 0.15 °E | Updated 52 minutes ago

Partly Cloudy
غائم جزئياً
75 °F
Feels Like 75 °F
N
0
ريح متغير ريح from شمال

هذا اليوم
High -- | Low -- °F
--% Chance of Precip.
Yesterday
High -- | Low -- °F
Precip. -- في
6:51 AM 6:43 PM
الهلال الأول, 40% visible
الضغط 30.18 في
وضوح الرؤية 6.2 أميال
سحابات غائم كلياً 3000 ft
Few 3300 ft
نقطة الندى 55 °F
الرطوبة 50%
Rainfall 0.00 في
عمق الثلج Not available.
الأشعة فوق البنفسجية 0 out of 12
Pollen Not available.
جودة الهواء Not available.
Flu Activity Not available.
METAR DAOV 302100Z 00000KT 9999 BKN030 FEW033TCU 24/13 Q1022

More Conditions Fewer Conditions

الضغط 30.18 في
وضوح الرؤية 6.2 أميال
سحابات غائم كلياً 3000 ft
Few 3300 ft
نقطة الندى 55 °F
الرطوبة 50%
Rainfall 0.00 في
عمق الثلج Not available.
الأشعة فوق البنفسجية 0 out of 12
Pollen Not available.
جودة الهواء Not available.
Flu Activity Not available.
METAR DAOV 302100Z 00000KT 9999 BKN030 FEW033TCU 24/13 Q1022

More Conditions Fewer Conditions

10-Day Weather Forecast

Almanac

علم الفلك

Sep. 30, 2014 Rise Set
Actual Time 6:51 AM CET 6:43 PM CET
Civil Twilight 6:26 AM CET 7:08 PM CET
Nautical Twilight 5:56 AM CET 7:38 PM CET
Astronomical Twilight 5:26 AM CET 8:08 PM CET
قمر 12:37 PM CET 11:07 PM CET
Length Of Visible Light 12h 42m
طول الیوم
11h 51m
Tomorrow will be 2m 14s shorter.
الهلال الأول, 40% of the Moon is Illuminated
هذا اليوم
الهلال الأول
Oct 1
الربع الاول
Oct 8
بدر
Oct 15
الربع الآخر
Oct 23
New

Today's Extremes

Country Highs Country Lows

Community

WunderPhotos

Upload Photos

1,757,755 photos uploaded!

Nearby

جودة الهواء

Not available.

عمق الثلج

Not available.

Earthquake Activity

City Distance Mag. Time & Date
No recent earthquake activity has been reported nearby.
Minimum magnitude displayed is 2.5.

Coastal Water Temperatures

مكان درجات الحرارة
No Stations Reporting

Nearby Weather Stations